Terminal Aerodrome Forecast
Issued by NWS Grand Forks, ND

Home | Current Version | Previous Version | Graphics & Text | Print | Product List | Glossary On
Versions: 1 2 3 4 5 6 7 8 9 10 11 12 13 14 15 16 17 18 19 20 21 22 23 24
000
FTUS43 KFGF 291100
TAFGFK
TAF
KGFK 291132Z 2912/3012 VRB03KT P6SM OVC009
     FM291400 23004KT P6SM SCT015
     FM291700 32005KT P6SM BKN025
     FM292100 36013KT P6SM VCTS SCT030CB BKN050
      TEMPO 2921/2923 4SM -SHRA OVC025
     FM300100 35008KT P6SM SCT050=

USA.gov is the U.S. government's official web portal to all federal, state and local government web resources and services.